createdAt,value
2022-10-17T00:01:04.866Z,96.60
2022-10-17T00:03:36.647Z,96.60
2022-10-17T00:06:09.648Z,96.50
2022-10-17T00:08:43.345Z,96.40
2022-10-17T00:11:16.400Z,96.20
2022-10-17T00:13:48.515Z,96.20
2022-10-17T00:16:21.664Z,96.10
2022-10-17T00:18:53.023Z,96.00
2022-10-17T00:21:25.752Z,96.00
2022-10-17T00:23:56.849Z,95.90
2022-10-17T00:26:28.861Z,95.70
2022-10-17T00:28:59.579Z,95.50
2022-10-17T00:31:32.227Z,95.80
2022-10-17T00:34:02.743Z,94.90
2022-10-17T00:36:33.318Z,94.70
2022-10-17T00:39:06.211Z,94.60
2022-10-17T00:41:37.313Z,94.50
2022-10-17T00:44:10.600Z,94.60
2022-10-17T00:46:41.908Z,94.60
2022-10-17T00:49:14.208Z,94.50
2022-10-17T00:51:47.243Z,94.40
2022-10-17T00:54:20.375Z,94.20
2022-10-17T00:56:51.852Z,94.00
2022-10-17T00:59:23.936Z,93.90
2022-10-17T01:01:57.537Z,93.80
2022-10-17T01:04:28.449Z,93.40
2022-10-17T01:06:59.076Z,93.20
2022-10-17T01:09:30.271Z,93.30
2022-10-17T01:12:03.431Z,93.10
2022-10-17T01:14:36.738Z,92.80
2022-10-17T01:17:09.848Z,92.60
2022-10-17T01:19:42.854Z,92.50
2022-10-17T01:22:14.574Z,92.40
2022-10-17T01:24:47.755Z,92.20
2022-10-17T01:27:21.059Z,91.80
2022-10-17T01:30:00.695Z,91.00
2022-10-17T01:32:33.996Z,90.90
2022-10-17T01:35:07.156Z,91.20
2022-10-17T01:37:40.798Z,91.10
2022-10-17T01:40:12.954Z,90.80
2022-10-17T01:42:46.966Z,90.30
2022-10-17T01:45:20.043Z,90.20
2022-10-17T01:47:53.080Z,89.80
2022-10-17T01:50:26.150Z,89.00
2022-10-17T01:52:59.430Z,89.30
2022-10-17T01:55:32.435Z,89.80
2022-10-17T01:58:05.445Z,89.50
2022-10-17T02:00:39.045Z,90.00
2022-10-17T02:03:14.055Z,89.20
2022-10-17T02:05:46.314Z,88.30
2022-10-17T02:08:18.357Z,88.10
2022-10-17T02:10:51.421Z,87.80
2022-10-17T02:13:22.839Z,86.70
2022-10-17T02:15:55.875Z,86.90
2022-10-17T02:18:27.338Z,85.50
2022-10-17T02:21:00.375Z,85.30
2022-10-17T02:23:32.406Z,84.30
2022-10-17T02:26:08.130Z,84.50
2022-10-17T02:28:41.184Z,84.90
2022-10-17T02:31:14.745Z,84.80
2022-10-17T02:33:46.270Z,83.80
2022-10-17T02:36:19.319Z,83.30
2022-10-17T02:38:54.481Z,83.00
2022-10-17T02:41:26.899Z,83.30
2022-10-17T02:44:00.221Z,83.50
2022-10-17T02:46:31.061Z,81.70
2022-10-17T02:49:02.875Z,81.00
2022-10-17T02:51:34.603Z,80.20
2022-10-17T02:54:08.044Z,79.10
2022-10-17T02:56:41.197Z,79.70
2022-10-17T02:59:13.843Z,79.20
2022-10-17T03:01:45.074Z,78.70
2022-10-17T03:04:17.414Z,78.90
2022-10-17T03:06:49.736Z,78.40
2022-10-17T03:09:20.441Z,78.30
2022-10-17T03:11:52.247Z,79.90
2022-10-17T03:14:23.039Z,79.30
2022-10-17T03:16:53.934Z,78.50
2022-10-17T03:19:24.911Z,77.60
2022-10-17T03:21:56.040Z,76.80
2022-10-17T03:24:26.550Z,75.40
2022-10-17T03:26:58.034Z,74.20
2022-10-17T03:29:28.869Z,75.30
2022-10-17T03:31:59.712Z,74.10
2022-10-17T03:34:30.290Z,74.30
2022-10-17T03:37:00.799Z,72.40
2022-10-17T03:39:31.512Z,72.30
2022-10-17T03:42:02.109Z,71.60
2022-10-17T03:44:32.798Z,71.40
2022-10-17T03:47:03.413Z,69.50
2022-10-17T03:49:34.017Z,69.50
2022-10-17T03:52:04.678Z,68.70
2022-10-17T03:54:36.006Z,68.40
2022-10-17T03:57:07.003Z,68.00
2022-10-17T03:59:37.586Z,68.50
2022-10-17T04:02:08.078Z,68.90
2022-10-17T04:04:38.591Z,70.00
2022-10-17T04:07:09.695Z,80.30
2022-10-17T04:09:40.430Z,69.10
2022-10-17T04:12:11.263Z,69.10
2022-10-17T04:14:42.144Z,72.20
2022-10-17T04:22:15.056Z,93.30
2022-10-17T04:24:46.426Z,89.10
2022-10-17T04:27:18.705Z,89.30
2022-10-17T04:39:56.500Z,99.90
2022-10-17T04:42:27.371Z,94.70
2022-10-17T04:44:58.141Z,95.80
2022-10-17T04:47:28.907Z,67.60
2022-10-17T04:49:59.556Z,67.90
2022-10-17T04:52:30.320Z,69.30
2022-10-17T04:55:02.948Z,68.10
2022-10-17T04:57:37.163Z,67.40
2022-10-17T05:02:40.741Z,68.10
2022-10-17T05:05:11.780Z,67.10
2022-10-17T05:07:43.536Z,67.20
2022-10-17T05:10:16.931Z,67.70
2022-10-17T05:12:49.573Z,68.30
2022-10-17T05:15:20.404Z,68.50
2022-10-17T05:17:51.639Z,68.60
2022-10-17T05:20:23.582Z,68.20
2022-10-17T05:22:54.465Z,69.10
2022-10-17T05:25:25.587Z,68.30
2022-10-17T05:27:57.546Z,67.70
2022-10-17T05:30:28.435Z,67.20
2022-10-17T05:32:59.051Z,67.80
2022-10-17T05:35:29.745Z,67.30
2022-10-17T05:38:04.387Z,68.40
2022-10-17T05:40:35.838Z,69.20
2022-10-17T05:43:06.354Z,67.10
2022-10-17T05:45:37.973Z,66.90
2022-10-17T05:48:10.106Z,67.10
2022-10-17T05:50:42.419Z,66.50
2022-10-17T05:53:16.325Z,64.50
2022-10-17T05:55:47.095Z,64.70
2022-10-17T05:58:22.476Z,64.90
2022-10-17T06:00:50.536Z,65.10
2022-10-17T06:03:22.384Z,65.10
2022-10-17T06:05:54.224Z,65.80
2022-10-17T06:08:25.878Z,66.70
2022-10-17T06:10:57.229Z,63.70
2022-10-17T06:21:12.978Z,73.40
2022-10-17T06:23:44.717Z,74.40
2022-10-17T06:26:15.261Z,73.40
2022-10-17T06:28:46.258Z,71.60
2022-10-17T06:31:21.224Z,72.70
2022-10-17T06:33:52.697Z,80.80
2022-10-17T06:36:26.377Z,78.50
2022-10-17T06:38:59.839Z,83.10
2022-10-17T06:41:30.549Z,60.60
2022-10-17T06:44:01.849Z,61.50
2022-10-17T06:46:35.358Z,61.00
2022-10-17T06:49:06.841Z,60.70
2022-10-17T06:51:44.781Z,61.10
2022-10-17T06:54:15.891Z,60.80
2022-10-17T06:56:46.654Z,61.30
2022-10-17T06:59:18.034Z,61.50
2022-10-17T07:01:48.698Z,62.70
2022-10-17T07:04:20.966Z,62.50
2022-10-17T07:06:54.516Z,62.80
2022-10-17T07:09:26.100Z,63.20
2022-10-17T07:11:56.755Z,63.60
2022-10-17T07:14:29.210Z,63.00
2022-10-17T07:17:02.712Z,64.00
2022-10-17T07:19:33.712Z,63.90
2022-10-17T07:22:04.432Z,64.10
2022-10-17T07:24:35.277Z,64.00
2022-10-17T07:27:07.865Z,63.40
2022-10-17T07:29:38.614Z,64.00
2022-10-17T07:32:09.756Z,63.50
2022-10-17T07:34:40.405Z,64.20
2022-10-17T07:37:12.538Z,64.00
2022-10-17T07:39:43.288Z,64.20
2022-10-17T07:42:15.609Z,64.40
2022-10-17T07:44:47.619Z,64.90
2022-10-17T07:47:18.144Z,64.20
2022-10-17T07:49:49.165Z,64.70
2022-10-17T07:52:20.500Z,64.60
2022-10-17T07:54:51.509Z,64.80
2022-10-17T07:57:22.028Z,65.40
2022-10-17T07:59:52.868Z,65.20
2022-10-17T08:02:26.058Z,65.10
2022-10-17T08:04:56.985Z,65.20
2022-10-17T08:07:29.453Z,65.50
2022-10-17T08:10:00.133Z,65.20
2022-10-17T08:12:32.632Z,64.50
2022-10-17T08:15:05.370Z,64.90
2022-10-17T08:17:38.415Z,65.20
2022-10-17T08:20:09.950Z,65.60
2022-10-17T08:22:40.901Z,65.30
2022-10-17T08:25:12.179Z,65.20
2022-10-17T08:27:43.014Z,64.70
2022-10-17T08:30:14.382Z,65.10
2022-10-17T08:32:46.240Z,65.00
2022-10-17T08:35:16.933Z,65.20
2022-10-17T08:37:47.527Z,66.20
2022-10-17T08:40:21.002Z,66.20
2022-10-17T08:43:01.551Z,66.40
2022-10-17T08:45:34.592Z,66.40
2022-10-17T08:48:08.065Z,66.50
2022-10-17T08:50:39.917Z,66.50
2022-10-17T08:53:13.714Z,66.40
2022-10-17T08:55:47.551Z,66.70
2022-10-17T08:58:21.395Z,67.60
2022-10-17T09:00:55.232Z,67.80
2022-10-17T09:03:30.886Z,67.20
2022-10-17T09:06:04.613Z,66.90
2022-10-17T09:08:38.907Z,67.10
2022-10-17T09:11:12.579Z,67.10
2022-10-17T09:13:44.751Z,67.50
2022-10-17T09:16:16.944Z,66.90
2022-10-17T09:18:50.627Z,66.70
2022-10-17T09:21:22.910Z,67.20
2022-10-17T09:24:03.981Z,67.40
2022-10-17T09:26:30.705Z,67.20
2022-10-17T09:29:04.543Z,67.30
2022-10-17T09:31:38.360Z,67.10
2022-10-17T09:34:11.543Z,67.00
2022-10-17T09:36:45.554Z,67.20
2022-10-17T09:39:17.031Z,67.10
2022-10-17T09:41:50.039Z,67.50
2022-10-17T09:44:23.597Z,67.60
2022-10-17T09:46:56.890Z,68.00
2022-10-17T09:49:30.307Z,68.50
2022-10-17T09:52:02.202Z,68.60
2022-10-17T09:54:35.749Z,68.50
2022-10-17T09:57:09.351Z,68.80
2022-10-17T09:59:42.615Z,69.00
2022-10-17T10:02:14.375Z,69.10
2022-10-17T10:05:03.745Z,70.00
2022-10-17T10:07:22.012Z,70.20
2022-10-17T10:09:54.053Z,70.80
2022-10-17T10:12:27.619Z,70.90
2022-10-17T10:14:59.132Z,71.10
2022-10-17T10:17:32.536Z,70.90
2022-10-17T10:20:09.511Z,71.20
2022-10-17T10:22:39.784Z,71.30
2022-10-17T10:25:13.439Z,71.70
2022-10-17T10:27:46.613Z,72.00
2022-10-17T10:30:22.754Z,72.30
2022-10-17T10:33:00.232Z,72.40
2022-10-17T10:35:32.963Z,72.90
2022-10-17T10:38:06.323Z,73.00
2022-10-17T10:40:39.553Z,73.70
2022-10-17T10:43:10.695Z,73.90
2022-10-17T10:45:48.986Z,74.40
2022-10-17T10:48:14.304Z,75.00
2022-10-17T10:50:45.754Z,75.60
2022-10-17T10:53:19.474Z,75.90
2022-10-17T10:55:52.627Z,76.20
2022-10-17T10:58:26.378Z,76.60
2022-10-17T11:00:58.852Z,77.00
2022-10-17T11:03:35.918Z,77.40
2022-10-17T11:06:09.119Z,77.70
2022-10-17T11:08:42.420Z,77.90
2022-10-17T11:11:17.118Z,78.20
2022-10-17T11:13:53.287Z,78.70
2022-10-17T11:16:23.571Z,78.90
2022-10-17T11:18:56.559Z,79.20
2022-10-17T11:21:30.082Z,79.50
2022-10-17T11:24:06.795Z,79.70
2022-10-17T11:26:37.782Z,80.00
2022-10-17T11:29:10.603Z,80.10
2022-10-17T11:31:44.316Z,80.30
2022-10-17T11:34:19.141Z,80.50
2022-10-17T11:36:53.971Z,80.90
2022-10-17T11:39:27.673Z,81.00
2022-10-17T11:42:04.200Z,81.20
2022-10-17T11:44:34.144Z,81.20
2022-10-17T11:47:07.457Z,80.70
2022-10-17T11:49:42.158Z,81.20
2022-10-17T11:52:19.476Z,81.40
2022-10-17T11:54:50.485Z,81.30
2022-10-17T11:57:24.419Z,81.60
2022-10-17T11:59:58.021Z,82.00
2022-10-17T12:02:31.726Z,82.30
2022-10-17T12:05:06.968Z,82.40
2022-10-17T12:07:40.547Z,82.50
2022-10-17T12:10:15.012Z,82.50
2022-10-17T12:12:45.704Z,82.50
2022-10-17T12:15:16.150Z,82.80
2022-10-17T12:17:50.444Z,83.80
2022-10-17T12:20:21.752Z,83.00
2022-10-17T12:22:57.798Z,83.20
2022-10-17T12:25:31.786Z,83.10
2022-10-17T12:28:04.872Z,83.20
2022-10-17T12:30:37.041Z,83.50
2022-10-17T12:33:11.147Z,83.80
2022-10-17T12:35:43.661Z,83.80
2022-10-17T12:38:17.025Z,84.00
2022-10-17T12:40:49.178Z,84.20
2022-10-17T12:43:22.404Z,84.50
2022-10-17T12:45:56.041Z,84.60
2022-10-17T12:48:32.149Z,84.80
2022-10-17T12:51:30.685Z,85.00
2022-10-17T12:53:38.137Z,84.80
2022-10-17T12:56:09.465Z,85.00
2022-10-17T12:58:41.541Z,85.20
2022-10-17T13:01:29.803Z,85.30
2022-10-17T13:03:49.108Z,85.40
2022-10-17T13:06:22.788Z,85.30
2022-10-17T13:08:59.796Z,85.50
2022-10-17T13:11:31.182Z,85.50
2022-10-17T13:14:04.561Z,85.80
2022-10-17T13:16:36.326Z,85.80
2022-10-17T13:19:09.555Z,85.90
2022-10-17T13:21:41.485Z,86.10
2022-10-17T13:24:57.977Z,86.10
2022-10-17T13:34:18.045Z,86.20
2022-10-17T13:36:51.947Z,86.20
2022-10-17T13:40:02.996Z,86.30
2022-10-17T13:49:11.953Z,86.30
2022-10-17T13:51:45.327Z,86.30
2022-10-17T13:55:17.534Z,86.50
2022-10-17T14:04:19.756Z,87.00
2022-10-17T14:18:40.487Z,87.60
2022-10-17T14:23:24.953Z,87.80
2022-10-17T14:50:08.327Z,89.20
2022-10-17T14:56:59.655Z,89.70
2022-10-17T14:59:52.670Z,89.60
2022-10-17T15:02:02.342Z,89.70
2022-10-17T15:04:35.661Z,89.80
2022-10-17T15:07:09.960Z,89.90
2022-10-17T15:09:40.665Z,90.10
2022-10-17T15:12:13.803Z,90.10
2022-10-17T15:14:44.687Z,90.10
2022-10-17T15:29:56.600Z,90.40
2022-10-17T15:32:30.074Z,90.40
2022-10-17T15:35:00.756Z,90.50
2022-10-17T15:37:33.828Z,90.60
2022-10-17T15:40:04.561Z,90.70
2022-10-17T15:42:35.251Z,90.90
2022-10-17T15:45:06.109Z,90.90
2022-10-17T15:47:37.417Z,91.30
2022-10-17T15:50:10.121Z,91.00
2022-10-17T15:52:40.834Z,91.00
2022-10-17T15:55:13.227Z,91.00
2022-10-17T15:57:47.435Z,91.00
2022-10-17T16:00:19.155Z,91.00
2022-10-17T16:02:51.596Z,91.00
2022-10-17T16:05:24.512Z,91.00
2022-10-17T16:07:58.607Z,90.90
2022-10-17T16:10:36.205Z,91.10
2022-10-17T16:13:08.312Z,90.90
2022-10-17T16:15:45.473Z,90.90
2022-10-17T16:18:15.446Z,91.30
2022-10-17T16:20:49.089Z,91.30
2022-10-17T16:23:19.702Z,91.30
2022-10-17T16:25:50.336Z,91.30
2022-10-17T16:28:20.854Z,91.30
2022-10-17T16:30:51.526Z,91.40
2022-10-17T16:33:23.432Z,91.50
2022-10-17T16:35:55.163Z,91.60
2022-10-17T16:38:26.003Z,91.90
2022-10-17T16:41:00.822Z,92.10
2022-10-17T16:43:32.259Z,92.20
2022-10-17T16:46:06.158Z,92.30
2022-10-17T16:48:37.592Z,92.50
2022-10-17T16:51:09.602Z,92.60
2022-10-17T16:53:41.595Z,92.70
2022-10-17T16:56:16.146Z,92.80
2022-10-17T16:58:51.457Z,92.80
2022-10-17T17:01:27.452Z,93.00
2022-10-17T17:03:58.707Z,93.10
2022-10-17T17:06:31.664Z,93.50
2022-10-17T17:09:02.633Z,93.30
2022-10-17T17:11:33.774Z,93.10
2022-10-17T17:14:04.723Z,93.10
2022-10-17T17:16:39.649Z,93.10
2022-10-17T17:19:12.805Z,93.00
2022-10-17T17:21:45.992Z,93.10
2022-10-17T17:24:20.852Z,93.00
2022-10-17T17:26:55.285Z,92.80
2022-10-17T17:29:27.061Z,93.00
2022-10-17T17:31:57.525Z,92.60
2022-10-17T17:34:28.239Z,92.50
2022-10-17T17:36:59.168Z,92.30
2022-10-17T17:39:29.662Z,92.30
2022-10-17T17:42:00.256Z,92.20
2022-10-17T17:44:38.434Z,91.90
2022-10-17T17:47:03.253Z,91.90
2022-10-17T17:49:36.806Z,91.80
2022-10-17T17:52:11.226Z,91.70
2022-10-17T17:54:41.791Z,91.60
2022-10-17T17:57:12.732Z,91.60
2022-10-17T17:59:43.451Z,91.50
2022-10-17T18:02:16.691Z,91.50
2022-10-17T18:04:46.549Z,91.60
2022-10-17T18:07:17.047Z,91.60
2022-10-17T18:09:47.743Z,91.60
2022-10-17T18:12:18.320Z,91.50
2022-10-17T18:14:55.260Z,91.60
2022-10-17T18:17:29.046Z,91.70
2022-10-17T18:20:03.860Z,91.70
2022-10-17T18:22:34.738Z,91.80
2022-10-17T18:25:09.458Z,92.00
2022-10-17T18:27:41.465Z,92.10
2022-10-17T18:30:12.668Z,92.20
2022-10-17T18:32:44.007Z,92.20
2022-10-17T18:35:14.763Z,92.10
2022-10-17T18:37:51.552Z,92.00
2022-10-17T18:40:28.206Z,92.00
2022-10-17T18:43:00.533Z,92.00
2022-10-17T18:45:35.419Z,92.00
2022-10-17T18:48:08.602Z,92.10
2022-10-17T18:50:42.780Z,92.10
2022-10-17T18:53:13.308Z,92.10
2022-10-17T18:58:16.908Z,92.20
2022-10-17T19:00:47.966Z,92.20
2022-10-17T19:03:19.094Z,92.20
2022-10-17T19:05:49.838Z,92.20
2022-10-17T19:08:39.939Z,92.30
2022-10-17T19:11:11.517Z,92.40
2022-10-17T19:16:18.898Z,92.20
2022-10-17T19:18:52.078Z,92.70
2022-10-17T19:21:23.612Z,92.30
2022-10-17T19:23:57.179Z,92.20
2022-10-17T19:26:32.739Z,92.30
2022-10-17T19:29:05.660Z,92.50
2022-10-17T19:31:38.011Z,92.60
2022-10-17T19:34:08.691Z,92.50
2022-10-17T19:36:39.729Z,94.00
2022-10-17T19:39:13.441Z,95.00
2022-10-17T19:44:15.339Z,92.50
2022-10-17T19:46:47.438Z,92.70
2022-10-17T19:49:19.396Z,99.20
2022-10-17T19:51:50.050Z,99.90
2022-10-17T19:54:21.468Z,99.90
2022-10-17T19:56:52.129Z,99.90
2022-10-17T20:01:53.434Z,99.90
2022-10-17T20:04:25.085Z,99.90
2022-10-17T20:06:57.214Z,99.90
2022-10-17T20:12:01.352Z,99.90
2022-10-17T20:14:32.049Z,99.90
2022-10-17T20:17:02.805Z,99.90
2022-10-17T20:19:35.289Z,99.90
2022-10-17T20:22:06.023Z,98.50
2022-10-17T20:24:36.531Z,99.00
2022-10-17T20:27:07.179Z,99.90
2022-10-17T20:29:37.914Z,99.90
2022-10-17T20:32:08.992Z,99.90
2022-10-17T20:34:40.494Z,99.90
2022-10-17T20:37:13.019Z,99.90
2022-10-17T20:39:44.795Z,93.70
2022-10-17T20:42:15.630Z,94.20
2022-10-17T20:44:46.802Z,94.30
2022-10-17T20:47:39.991Z,94.30
2022-10-17T20:49:50.380Z,94.30
2022-10-17T20:52:24.140Z,94.40
2022-10-17T20:54:54.846Z,94.50
2022-10-17T20:57:25.690Z,94.60
2022-10-17T20:59:56.521Z,94.60
2022-10-17T21:02:27.145Z,94.70
2022-10-17T21:04:57.804Z,94.80
2022-10-17T21:07:28.532Z,94.80
2022-10-17T21:10:07.654Z,94.90
2022-10-17T21:12:42.755Z,95.00
2022-10-17T21:15:03.166Z,95.10
2022-10-17T21:17:34.087Z,95.10
2022-10-17T21:20:04.802Z,95.30
2022-10-17T21:22:37.391Z,95.40
2022-10-17T21:25:08.599Z,95.40
2022-10-17T21:27:39.300Z,95.30
2022-10-17T21:30:10.938Z,95.30
2022-10-17T21:32:55.325Z,95.30
2022-10-17T21:35:13.485Z,95.10
2022-10-17T21:37:46.079Z,95.10
2022-10-17T21:40:18.217Z,95.20
2022-10-17T21:42:48.977Z,95.30
2022-10-17T21:45:25.885Z,95.40
2022-10-17T21:48:11.615Z,95.60
2022-10-17T21:50:24.414Z,95.70
2022-10-17T21:52:55.018Z,95.80
2022-10-17T21:55:25.614Z,95.90
2022-10-17T21:57:56.334Z,96.00
2022-10-17T22:00:26.985Z,96.50
2022-10-17T22:02:57.594Z,96.20
2022-10-17T22:05:28.280Z,96.30
2022-10-17T22:07:58.785Z,96.30
2022-10-17T22:10:29.300Z,96.30
2022-10-17T22:12:59.838Z,96.30
2022-10-17T22:15:31.271Z,96.10
2022-10-17T22:18:01.805Z,96.00
2022-10-17T22:20:32.498Z,95.80
2022-10-17T22:23:03.163Z,95.70
2022-10-17T22:25:33.812Z,95.60
2022-10-17T22:28:04.521Z,96.10
2022-10-17T22:30:35.340Z,95.60
2022-10-17T22:33:06.018Z,95.60
2022-10-17T22:35:36.609Z,95.60
2022-10-17T22:38:07.430Z,95.80
2022-10-17T22:40:38.038Z,95.90
2022-10-17T22:43:08.852Z,96.00
2022-10-17T22:45:39.854Z,96.20
2022-10-17T22:48:12.898Z,96.30
2022-10-17T22:50:43.589Z,96.30
2022-10-17T22:53:14.512Z,96.30
2022-10-17T22:55:45.006Z,96.30
2022-10-17T22:58:15.678Z,96.20
2022-10-17T23:00:46.163Z,96.20
2022-10-17T23:03:16.863Z,96.10
2022-10-17T23:05:48.168Z,96.00
2022-10-17T23:08:19.596Z,96.00
2022-10-17T23:10:50.800Z,95.80
2022-10-17T23:13:25.321Z,95.80
2022-10-17T23:15:57.472Z,96.00
2022-10-17T23:21:00.154Z,96.20
2022-10-17T23:23:30.799Z,96.30
2022-10-17T23:26:03.840Z,97.90
2022-10-17T23:28:36.161Z,96.40
2022-10-17T23:31:09.317Z,96.60
2022-10-17T23:33:41.551Z,96.70
2022-10-17T23:36:14.069Z,96.70
2022-10-17T23:38:46.354Z,96.70
2022-10-17T23:41:18.277Z,96.80
2022-10-17T23:43:48.994Z,96.80
2022-10-17T23:46:19.549Z,97.00
2022-10-17T23:48:50.811Z,97.10
2022-10-17T23:51:23.042Z,97.00
2022-10-17T23:53:53.710Z,96.80
2022-10-17T23:56:24.337Z,96.90
2022-10-17T23:58:56.695Z,96.80
